createdAt,value
2022-10-18T00:01:05.475Z,13.07
2022-10-18T00:03:40.021Z,13.05
2022-10-18T00:06:11.202Z,13.01
2022-10-18T00:08:39.293Z,12.97
2022-10-18T00:11:07.511Z,12.94
2022-10-18T00:13:35.791Z,12.91
2022-10-18T00:16:09.600Z,12.90
2022-10-18T00:18:37.096Z,12.89
2022-10-18T00:21:13.850Z,12.88
2022-10-18T00:23:41.959Z,12.87
2022-10-18T00:26:15.203Z,12.87
2022-10-18T00:28:44.674Z,12.87
2022-10-18T00:31:18.546Z,12.86
2022-10-18T00:33:47.860Z,12.85
2022-10-18T00:36:15.727Z,12.85
2022-10-18T00:38:44.068Z,12.82
2022-10-18T00:41:14.940Z,12.81
2022-10-18T00:44:01.980Z,12.80
2022-10-18T00:46:32.290Z,12.81
2022-10-18T00:49:03.081Z,12.81
2022-10-18T00:51:43.542Z,12.83
2022-10-18T00:54:13.375Z,12.84
2022-10-18T00:56:41.494Z,12.84
2022-10-18T00:59:09.121Z,12.84
2022-10-18T01:01:36.657Z,12.84
2022-10-18T01:04:04.379Z,12.85
2022-10-18T01:06:33.787Z,12.85
2022-10-18T01:09:13.716Z,12.85
2022-10-18T01:11:44.006Z,12.87
2022-10-18T01:14:30.387Z,12.89
2022-10-18T01:17:08.125Z,12.91
2022-10-18T01:20:07.629Z,12.92
2022-10-18T01:22:44.962Z,12.93
2022-10-18T01:25:19.692Z,12.93
2022-10-18T01:27:59.269Z,12.93
2022-10-18T01:30:37.932Z,12.90
2022-10-18T01:33:41.303Z,12.89
2022-10-18T01:36:31.188Z,12.88
2022-10-18T01:39:02.803Z,12.85
2022-10-18T01:41:30.706Z,12.83
2022-10-18T01:44:04.514Z,12.83
2022-10-18T01:46:33.311Z,12.84
2022-10-18T01:49:00.857Z,12.85
2022-10-18T01:51:33.138Z,12.82
2022-10-18T01:54:01.064Z,12.79
2022-10-18T01:57:00.614Z,12.77
2022-10-18T02:00:01.461Z,12.73
2022-10-18T02:03:10.899Z,12.70
2022-10-18T02:05:45.417Z,12.68
2022-10-18T02:08:30.741Z,12.66
2022-10-18T02:11:05.661Z,12.67
2022-10-18T02:13:47.833Z,12.68
2022-10-18T02:16:44.236Z,12.69
2022-10-18T02:19:31.296Z,12.68
2022-10-18T02:22:00.179Z,12.67
2022-10-18T02:24:35.839Z,12.65
2022-10-18T02:27:03.912Z,12.63
2022-10-18T02:29:32.287Z,12.63
2022-10-18T02:32:27.929Z,12.61
2022-10-18T02:35:00.869Z,12.59
2022-10-18T02:37:35.254Z,12.56
2022-10-18T02:40:05.022Z,12.54
2022-10-18T02:42:35.721Z,12.51
2022-10-18T02:45:05.812Z,12.48
2022-10-18T02:47:33.506Z,12.45
2022-10-18T02:50:01.616Z,12.42
2022-10-18T02:52:29.365Z,12.39
2022-10-18T02:54:57.007Z,12.36
2022-10-18T02:57:24.521Z,12.30
2022-10-18T02:59:52.272Z,12.24
2022-10-18T03:02:19.787Z,12.23
2022-10-18T03:04:47.322Z,12.22
2022-10-18T03:07:14.868Z,12.24
2022-10-18T03:09:42.385Z,12.25
2022-10-18T03:12:10.073Z,12.24
2022-10-18T03:14:37.600Z,12.22
2022-10-18T03:17:05.121Z,12.20
2022-10-18T03:19:32.864Z,12.17
2022-10-18T03:22:00.471Z,12.12
2022-10-18T03:24:28.186Z,12.10
2022-10-18T03:26:55.685Z,12.07
2022-10-18T03:29:23.193Z,12.05
2022-10-18T03:31:50.728Z,12.06
2022-10-18T03:34:18.324Z,12.07
2022-10-18T03:36:45.873Z,12.07
2022-10-18T03:39:13.495Z,12.09
2022-10-18T03:41:41.058Z,12.12
2022-10-18T03:44:08.603Z,12.14
2022-10-18T03:46:36.172Z,12.16
2022-10-18T03:49:03.743Z,12.17
2022-10-18T03:51:31.322Z,12.18
2022-10-18T03:53:58.833Z,12.18
2022-10-18T03:56:26.607Z,12.17
2022-10-18T03:58:54.159Z,12.16
2022-10-18T04:01:21.721Z,12.16
2022-10-18T04:03:49.314Z,12.17
2022-10-18T04:06:17.024Z,12.17
2022-10-18T04:08:44.536Z,12.18
2022-10-18T04:11:12.491Z,12.19
2022-10-18T04:13:40.030Z,12.19
2022-10-18T04:16:07.541Z,12.21
2022-10-18T04:18:35.117Z,12.22
2022-10-18T04:21:02.632Z,12.22
2022-10-18T04:23:31.829Z,12.21
2022-10-18T04:26:02.512Z,12.23
2022-10-18T04:28:35.229Z,12.27
2022-10-18T04:31:02.836Z,12.28
2022-10-18T04:33:30.341Z,12.31
2022-10-18T04:35:57.919Z,12.34
2022-10-18T04:38:25.474Z,12.35
2022-10-18T04:40:52.968Z,12.38
2022-10-18T04:43:20.511Z,12.42
2022-10-18T04:45:48.135Z,12.45
2022-10-18T04:48:15.657Z,12.48
2022-10-18T04:50:43.560Z,12.52
2022-10-18T04:53:15.960Z,12.56
2022-10-18T04:55:45.652Z,12.61
2022-10-18T04:58:13.484Z,12.64
2022-10-18T05:00:41.333Z,12.69
2022-10-18T05:03:09.871Z,12.73
2022-10-18T05:05:49.911Z,12.77
2022-10-18T05:08:24.697Z,12.80
2022-10-18T05:10:52.228Z,12.82
2022-10-18T05:13:19.748Z,12.82
2022-10-18T05:15:47.678Z,12.80
2022-10-18T05:18:15.400Z,12.80
2022-10-18T05:20:42.933Z,12.80
2022-10-18T05:23:10.899Z,12.83
2022-10-18T05:25:42.341Z,12.85
2022-10-18T05:28:34.462Z,12.86
2022-10-18T05:31:19.558Z,12.90
2022-10-18T05:34:02.228Z,12.93
2022-10-18T05:36:32.008Z,12.97
2022-10-18T05:39:02.440Z,12.97
2022-10-18T05:41:32.831Z,13.01
2022-10-18T05:44:05.265Z,13.05
2022-10-18T05:46:33.503Z,13.09
2022-10-18T05:49:01.332Z,13.15
2022-10-18T05:51:28.853Z,13.20
2022-10-18T05:53:56.557Z,13.26
2022-10-18T05:56:24.319Z,13.33
2022-10-18T05:58:52.292Z,13.37
2022-10-18T06:01:20.459Z,13.40
2022-10-18T06:03:49.241Z,13.39
2022-10-18T06:06:16.833Z,13.42
2022-10-18T06:08:44.479Z,13.46
2022-10-18T06:11:14.942Z,13.49
2022-10-18T06:13:48.096Z,13.51
2022-10-18T06:16:18.164Z,13.53
2022-10-18T06:18:50.912Z,13.57
2022-10-18T06:21:23.785Z,13.61
2022-10-18T06:23:54.603Z,13.60
2022-10-18T06:26:23.436Z,13.63
2022-10-18T06:28:51.449Z,13.67
2022-10-18T06:31:20.478Z,13.68
2022-10-18T06:33:49.169Z,13.74
2022-10-18T06:36:19.429Z,13.80
2022-10-18T06:38:47.226Z,13.89
2022-10-18T06:41:14.950Z,13.98
2022-10-18T06:43:43.660Z,14.07
2022-10-18T06:46:11.195Z,14.16
2022-10-18T06:48:39.359Z,14.22
2022-10-18T06:51:08.596Z,14.29
2022-10-18T06:53:44.542Z,14.33
2022-10-18T06:56:30.725Z,14.38
2022-10-18T06:59:08.230Z,14.41
2022-10-18T07:01:38.464Z,14.43
2022-10-18T07:04:08.115Z,14.46
2022-10-18T07:06:35.891Z,14.50
2022-10-18T07:09:12.287Z,14.54
2022-10-18T07:11:42.970Z,14.53
2022-10-18T07:14:15.361Z,14.53
2022-10-18T07:16:45.086Z,14.54
2022-10-18T07:19:16.772Z,14.60
2022-10-18T07:21:47.076Z,14.69
2022-10-18T07:25:14.681Z,14.77
2022-10-18T07:27:43.006Z,14.84
2022-10-18T07:30:11.394Z,14.92
2022-10-18T07:32:39.014Z,14.97
2022-10-18T07:35:13.936Z,15.01
2022-10-18T07:37:42.536Z,15.04
2022-10-18T07:40:11.829Z,15.08
2022-10-18T07:42:39.420Z,15.10
2022-10-18T07:45:07.443Z,15.12
2022-10-18T07:47:35.440Z,15.17
2022-10-18T07:50:04.746Z,15.27
2022-10-18T07:52:32.245Z,15.37
2022-10-18T07:54:59.768Z,15.45
2022-10-18T07:57:27.350Z,15.46
2022-10-18T07:59:56.905Z,15.49
2022-10-18T08:02:24.559Z,15.48
2022-10-18T08:04:52.079Z,15.50
2022-10-18T08:07:19.641Z,15.58
2022-10-18T08:09:47.297Z,15.65
2022-10-18T08:12:15.550Z,15.70
2022-10-18T08:14:43.055Z,15.72
2022-10-18T08:17:10.599Z,15.81
2022-10-18T08:19:38.193Z,15.84
2022-10-18T08:22:06.794Z,15.82
2022-10-18T08:24:35.441Z,15.85
2022-10-18T08:27:03.554Z,15.89
2022-10-18T08:29:32.625Z,15.88
2022-10-18T08:32:00.225Z,15.86
2022-10-18T08:34:28.162Z,15.79
2022-10-18T08:36:56.040Z,15.72
2022-10-18T08:39:23.768Z,15.67
2022-10-18T08:42:10.242Z,15.60
2022-10-18T08:44:49.284Z,15.52
2022-10-18T08:47:20.895Z,15.51
2022-10-18T08:49:59.309Z,15.53
2022-10-18T08:52:58.775Z,15.57
2022-10-18T08:55:36.546Z,15.53
2022-10-18T08:58:28.059Z,15.50
2022-10-18T09:01:13.643Z,15.47
2022-10-18T09:03:57.105Z,15.47
2022-10-18T09:06:33.662Z,15.49
2022-10-18T09:09:33.188Z,15.50
2022-10-18T09:12:39.400Z,15.54
2022-10-18T09:15:29.173Z,15.57
2022-10-18T09:18:12.773Z,15.63
2022-10-18T09:20:49.084Z,15.69
2022-10-18T09:23:48.662Z,15.75
2022-10-18T09:26:22.097Z,15.82
2022-10-18T09:29:10.815Z,15.88
2022-10-18T09:31:44.310Z,15.97
2022-10-18T09:34:22.018Z,16.04
2022-10-18T09:36:51.876Z,16.10
2022-10-18T09:39:24.911Z,16.13
2022-10-18T09:41:57.625Z,16.19
2022-10-18T09:44:29.478Z,16.27
2022-10-18T09:47:05.537Z,16.29
2022-10-18T09:49:41.015Z,16.33
2022-10-18T09:52:18.375Z,16.38
2022-10-18T09:54:59.125Z,16.43
2022-10-18T09:57:33.124Z,16.45
2022-10-18T10:00:03.141Z,16.47
2022-10-18T10:02:32.722Z,16.52
2022-10-18T10:05:00.350Z,16.54
2022-10-18T10:07:35.206Z,16.59
2022-10-18T10:10:08.622Z,16.63
2022-10-18T10:12:38.411Z,16.71
2022-10-18T10:15:22.577Z,16.77
2022-10-18T10:18:06.036Z,16.81
2022-10-18T10:20:36.852Z,16.83
2022-10-18T10:23:07.505Z,16.80
2022-10-18T10:25:38.095Z,16.75
2022-10-18T10:28:23.464Z,16.71
2022-10-18T10:30:51.469Z,16.61
2022-10-18T10:33:36.490Z,16.51
2022-10-18T10:36:16.490Z,16.44
2022-10-18T10:38:44.360Z,16.39
2022-10-18T10:41:21.773Z,16.30
2022-10-18T10:43:55.785Z,16.24
2022-10-18T10:46:34.364Z,16.21
2022-10-18T10:52:08.357Z,16.15
2022-10-18T10:54:50.405Z,16.09
2022-10-18T10:57:35.617Z,16.04
2022-10-18T11:00:03.991Z,15.99
2022-10-18T11:02:34.036Z,15.93
2022-10-18T11:05:25.634Z,15.91
2022-10-18T11:07:58.067Z,15.85
2022-10-18T11:10:30.754Z,15.82
2022-10-18T11:13:25.127Z,15.78
2022-10-18T11:16:00.250Z,15.72
2022-10-18T11:18:33.207Z,15.71
2022-10-18T11:21:08.008Z,15.68
2022-10-18T11:23:39.086Z,15.65
2022-10-18T11:26:12.701Z,15.67
2022-10-18T11:29:13.448Z,15.66
2022-10-18T11:31:47.069Z,15.65
2022-10-18T11:34:14.563Z,15.66
2022-10-18T11:37:25.941Z,15.63
2022-10-18T11:40:21.768Z,15.61
2022-10-18T11:43:00.544Z,15.60
2022-10-18T11:46:00.119Z,15.60
2022-10-18T11:48:46.414Z,15.61
2022-10-18T11:51:44.518Z,15.63
2022-10-18T11:54:41.788Z,15.65
2022-10-18T11:57:22.919Z,15.66
2022-10-18T11:59:53.379Z,15.68
2022-10-18T12:02:23.914Z,15.69
2022-10-18T12:05:22.037Z,15.71
2022-10-18T12:08:11.081Z,15.72
2022-10-18T12:10:53.225Z,15.69
2022-10-18T12:13:36.956Z,15.69
2022-10-18T12:16:07.774Z,15.68
2022-10-18T12:18:41.128Z,15.62
2022-10-18T12:21:12.264Z,15.51
2022-10-18T12:23:54.708Z,15.46
2022-10-18T12:26:23.319Z,15.41
2022-10-18T12:28:56.909Z,15.37
2022-10-18T12:31:38.662Z,15.33
2022-10-18T12:34:23.605Z,15.27
2022-10-18T12:37:22.708Z,15.23
2022-10-18T12:40:20.518Z,15.18
2022-10-18T12:42:52.196Z,15.12
2022-10-18T12:45:46.613Z,15.06
2022-10-18T12:48:34.810Z,15.02
2022-10-18T12:51:05.230Z,14.96
2022-10-18T12:53:34.732Z,14.87
2022-10-18T12:56:35.378Z,14.80
2022-10-18T12:59:19.512Z,14.74
2022-10-18T13:01:53.173Z,14.69
2022-10-18T13:04:26.884Z,14.64
2022-10-18T13:06:57.271Z,14.58
2022-10-18T13:09:27.297Z,14.52
2022-10-18T13:12:18.620Z,14.49
2022-10-18T13:15:25.866Z,14.46
2022-10-18T13:18:17.433Z,14.42
2022-10-18T13:21:08.617Z,14.39
2022-10-18T13:24:08.091Z,14.34
2022-10-18T13:30:23.512Z,14.29
2022-10-18T13:32:53.907Z,14.26
2022-10-18T13:35:38.707Z,14.24
2022-10-18T13:38:31.304Z,14.20
2022-10-18T13:41:08.151Z,14.15
2022-10-18T13:43:54.641Z,14.12
2022-10-18T13:46:40.703Z,14.08
2022-10-18T13:49:17.451Z,14.04
2022-10-18T13:52:06.999Z,14.03
2022-10-18T13:55:07.541Z,13.99
2022-10-18T13:58:07.061Z,13.95
2022-10-18T14:01:05.834Z,13.93
2022-10-18T14:03:57.450Z,13.91
2022-10-18T14:06:33.501Z,13.86
2022-10-18T14:09:32.933Z,13.82
2022-10-18T14:12:20.272Z,13.77
2022-10-18T14:14:53.559Z,13.76
2022-10-18T14:17:43.275Z,13.76
2022-10-18T14:20:48.959Z,13.76
2022-10-18T14:23:24.737Z,13.74
2022-10-18T14:26:05.879Z,13.71
2022-10-18T14:28:55.137Z,13.68
2022-10-18T14:31:21.106Z,13.68
2022-10-18T14:33:58.595Z,13.66
2022-10-18T14:36:37.950Z,13.64
2022-10-18T14:39:07.659Z,13.62
2022-10-18T14:41:38.407Z,13.61
2022-10-18T14:44:32.270Z,13.60
2022-10-18T14:47:02.891Z,13.60
2022-10-18T14:49:31.183Z,13.59
2022-10-18T14:52:00.357Z,13.57
2022-10-18T14:54:33.983Z,13.56
2022-10-18T14:57:02.459Z,13.54
2022-10-18T14:59:34.230Z,13.50
2022-10-18T15:02:15.180Z,13.48
2022-10-18T15:04:47.456Z,13.45
2022-10-18T15:07:17.143Z,13.45
2022-10-18T15:09:47.270Z,13.46
2022-10-18T15:12:16.040Z,13.47
2022-10-18T15:14:45.402Z,13.48
2022-10-18T15:17:31.277Z,13.47
2022-10-18T15:20:05.906Z,13.46
2022-10-18T15:22:34.113Z,13.44
2022-10-18T15:25:18.131Z,13.44
2022-10-18T15:27:49.201Z,13.44
2022-10-18T15:30:22.993Z,13.46
2022-10-18T15:32:59.781Z,13.45
2022-10-18T15:35:33.194Z,13.46
2022-10-18T15:38:20.922Z,13.49
2022-10-18T15:40:48.489Z,13.54
2022-10-18T15:43:32.036Z,13.55
2022-10-18T15:46:06.363Z,13.57
2022-10-18T15:48:38.694Z,13.62
2022-10-18T15:51:08.816Z,13.61
2022-10-18T15:53:44.436Z,13.59
2022-10-18T15:56:27.793Z,13.54
2022-10-18T15:58:57.912Z,13.50
2022-10-18T16:01:43.189Z,13.49
2022-10-18T16:04:31.942Z,13.49
2022-10-18T16:07:00.167Z,13.47
2022-10-18T16:09:29.159Z,13.46
2022-10-18T16:11:58.201Z,13.43
2022-10-18T16:14:26.888Z,13.39
2022-10-18T16:17:00.622Z,13.34
2022-10-18T16:19:28.646Z,13.30
2022-10-18T16:21:56.771Z,13.27
2022-10-18T16:24:24.443Z,13.24
2022-10-18T16:26:53.083Z,13.25
2022-10-18T16:29:28.540Z,13.25
2022-10-18T16:31:58.162Z,13.28
2022-10-18T16:34:27.228Z,13.31
2022-10-18T16:36:55.704Z,13.33
2022-10-18T16:39:23.838Z,13.33
2022-10-18T16:41:51.981Z,13.33
2022-10-18T16:44:19.502Z,13.36
2022-10-18T16:46:50.960Z,13.38
2022-10-18T16:49:24.442Z,13.37
2022-10-18T16:51:54.044Z,13.37
2022-10-18T16:54:22.245Z,13.36
2022-10-18T16:56:50.257Z,13.34
2022-10-18T16:59:36.158Z,13.32
2022-10-18T17:02:08.902Z,13.28
2022-10-18T17:04:36.497Z,13.25
2022-10-18T17:07:04.967Z,13.21
2022-10-18T17:09:34.782Z,13.17
2022-10-18T17:12:02.312Z,13.16
2022-10-18T17:14:29.832Z,13.15
2022-10-18T17:16:57.609Z,13.14
2022-10-18T17:19:25.253Z,13.13
2022-10-18T17:21:52.757Z,13.13
2022-10-18T17:24:20.358Z,13.13
2022-10-18T17:26:47.973Z,13.10
2022-10-18T17:29:15.799Z,13.09
2022-10-18T17:31:43.453Z,13.08
2022-10-18T17:34:11.003Z,13.06
2022-10-18T17:36:38.561Z,13.02
2022-10-18T17:39:06.115Z,13.01
2022-10-18T17:41:33.642Z,12.99
2022-10-18T17:44:03.886Z,12.97
2022-10-18T17:46:31.728Z,12.93
2022-10-18T17:48:59.260Z,12.91
2022-10-18T17:51:26.980Z,12.90
2022-10-18T17:53:54.478Z,12.90
2022-10-18T17:56:22.116Z,12.90
2022-10-18T17:58:51.400Z,12.88
2022-10-18T18:01:23.105Z,12.86
2022-10-18T18:03:56.656Z,12.85
2022-10-18T18:06:33.748Z,12.85
2022-10-18T18:09:06.831Z,12.81
2022-10-18T18:11:36.580Z,12.77
2022-10-18T18:14:09.542Z,12.73
2022-10-18T18:16:41.673Z,12.69
2022-10-18T18:19:10.343Z,12.66
2022-10-18T18:21:39.268Z,12.63
2022-10-18T18:24:08.191Z,12.60
2022-10-18T18:26:36.804Z,12.59
2022-10-18T18:29:04.847Z,12.59
2022-10-18T18:31:38.762Z,12.59
2022-10-18T18:34:10.250Z,12.54
2022-10-18T18:36:38.441Z,12.53
2022-10-18T18:39:06.481Z,12.53
2022-10-18T18:41:34.857Z,12.54
2022-10-18T18:44:05.557Z,12.52
2022-10-18T18:46:38.699Z,12.50
2022-10-18T18:49:07.847Z,12.50
2022-10-18T18:51:37.960Z,12.47
2022-10-18T18:54:07.130Z,12.44
2022-10-18T18:56:34.747Z,12.39
2022-10-18T18:59:02.720Z,12.37
2022-10-18T19:01:33.559Z,12.35
2022-10-18T19:04:01.798Z,12.31
2022-10-18T19:06:33.041Z,12.28
2022-10-18T19:09:03.276Z,12.26
2022-10-18T19:11:34.306Z,12.23
2022-10-18T19:14:03.307Z,12.20
2022-10-18T19:16:48.313Z,12.16
2022-10-18T19:19:19.074Z,12.13
2022-10-18T19:21:52.458Z,12.11
2022-10-18T19:24:21.609Z,12.09
2022-10-18T19:26:54.879Z,12.07
2022-10-18T19:29:28.324Z,12.06
2022-10-18T19:31:58.616Z,12.09
2022-10-18T19:34:27.840Z,12.12
2022-10-18T19:36:56.455Z,12.15
2022-10-18T19:39:26.708Z,12.19
2022-10-18T19:41:56.974Z,12.20
2022-10-18T19:44:28.074Z,12.20
2022-10-18T19:46:56.100Z,12.21
2022-10-18T19:49:25.484Z,12.22
2022-10-18T19:51:53.047Z,12.24
2022-10-18T19:54:21.635Z,12.27
2022-10-18T19:56:49.467Z,12.28
2022-10-18T19:59:18.153Z,12.22
2022-10-18T20:01:45.979Z,12.16
2022-10-18T20:04:13.781Z,12.10
2022-10-18T20:06:42.011Z,12.06
2022-10-18T20:09:13.478Z,12.00
2022-10-18T20:11:43.868Z,11.95
2022-10-18T20:14:11.470Z,11.87
2022-10-18T20:16:38.997Z,11.78
2022-10-18T20:19:07.289Z,11.70
2022-10-18T20:21:35.740Z,11.62
2022-10-18T20:24:05.475Z,11.54
2022-10-18T20:26:33.550Z,11.44
2022-10-18T20:29:01.595Z,11.36
2022-10-18T20:31:31.744Z,11.27
2022-10-18T20:34:01.670Z,11.21
2022-10-18T20:36:31.462Z,11.12
2022-10-18T20:39:00.034Z,11.03
2022-10-18T20:41:30.709Z,10.93
2022-10-18T20:44:00.571Z,10.85
2022-10-18T20:46:33.803Z,10.80
2022-10-18T20:49:02.445Z,10.72
2022-10-18T20:51:30.713Z,10.66
2022-10-18T20:53:59.523Z,10.62
2022-10-18T20:56:27.207Z,10.55
2022-10-18T20:58:56.960Z,10.49
2022-10-18T21:01:30.303Z,10.42
2022-10-18T21:04:01.309Z,10.36
2022-10-18T21:06:31.062Z,10.29
2022-10-18T21:09:01.381Z,10.24
2022-10-18T21:11:30.827Z,10.19
2022-10-18T21:14:02.603Z,10.13
2022-10-18T21:16:32.019Z,10.07
2022-10-18T21:19:08.619Z,10.01
2022-10-18T21:21:36.246Z,9.96
2022-10-18T21:24:07.078Z,9.89
2022-10-18T21:26:36.224Z,9.83
2022-10-18T21:29:06.826Z,9.78
2022-10-18T21:31:38.898Z,9.74
2022-10-18T21:34:12.751Z,9.72
2022-10-18T21:36:41.693Z,9.71
2022-10-18T21:39:13.592Z,9.70
2022-10-18T21:41:42.594Z,9.66
2022-10-18T21:44:11.286Z,9.67
2022-10-18T21:46:40.187Z,9.68
2022-10-18T21:49:07.812Z,9.66
2022-10-18T21:51:36.331Z,9.63
2022-10-18T21:54:04.987Z,9.60
2022-10-18T21:56:34.382Z,9.57
2022-10-18T21:59:02.800Z,9.54
2022-10-18T22:01:33.867Z,9.51
2022-10-18T22:04:04.016Z,9.50
2022-10-18T22:09:07.051Z,9.50
2022-10-18T22:11:41.096Z,9.50
2022-10-18T22:14:09.215Z,9.48
2022-10-18T22:16:36.967Z,9.48
2022-10-18T22:19:06.162Z,9.49
2022-10-18T22:21:34.580Z,9.52
2022-10-18T22:24:06.199Z,9.53
2022-10-18T22:26:37.314Z,9.55
2022-10-18T22:29:07.856Z,9.58
2022-10-18T22:31:38.399Z,9.61
2022-10-18T22:34:10.191Z,9.63
2022-10-18T22:36:38.089Z,9.66
2022-10-18T22:39:06.548Z,9.69
2022-10-18T22:41:35.408Z,9.71
2022-10-18T22:44:03.956Z,9.74
2022-10-18T22:46:33.022Z,9.76
2022-10-18T22:49:00.991Z,9.80
2022-10-18T22:51:28.557Z,9.84
2022-10-18T22:53:56.282Z,9.87
2022-10-18T22:56:24.538Z,9.89
2022-10-18T22:58:52.691Z,9.91
2022-10-18T23:01:23.915Z,9.95
2022-10-18T23:03:57.052Z,9.98
2022-10-18T23:06:33.540Z,10.00
2022-10-18T23:09:05.037Z,10.02
2022-10-18T23:11:33.493Z,10.04
2022-10-18T23:14:03.638Z,10.05
2022-10-18T23:16:31.779Z,10.06
2022-10-18T23:19:00.118Z,10.07
2022-10-18T23:21:28.466Z,10.06
2022-10-18T23:23:57.349Z,10.05
2022-10-18T23:26:27.814Z,10.05
2022-10-18T23:28:56.438Z,10.05
2022-10-18T23:31:27.691Z,10.04
2022-10-18T23:33:57.604Z,10.02
2022-10-18T23:36:25.634Z,9.98
2022-10-18T23:38:53.752Z,9.96
2022-10-18T23:41:22.537Z,9.93
2022-10-18T23:43:50.417Z,9.90
2022-10-18T23:46:18.830Z,9.85
2022-10-18T23:48:47.308Z,9.78
2022-10-18T23:51:15.360Z,9.74
2022-10-18T23:53:43.420Z,9.70
2022-10-18T23:56:14.117Z,9.66
2022-10-18T23:58:43.192Z,9.62
